Queens Village, New York
Current Conditions -  °F | °C
As of 2:51 PM on Thursday 27 Nov 2014 (Local Time) from KJFK Reporting Station
Overcast Overcast  
Wind Chill: 33°   Ceiling: 1600
Heat Index: 38°   Visibility: 10mi
Dew Point: 32°   Wind: 7mph
Humidity: 79%   Direction: 360°N
Pressure: 30"   Gusts: NA
Location:  40.73°N, 73.74°W
Report Text: KJFK 271951Z 36006KT 10SM BKN016 BKN021 OVC034 03/00 A3000 RMK AO2 SLP157 T00330000 $
Loading
Personal Weather Stations






























Interactive Weather Map New forecast layout! Learn more

10-Day Weather Forecast

Advertisements
Track Severe Weather on mobile